sensor_id;sensor_type;location;lat;lon;timestamp;pressure;altitude;pressure_sealevel;temperature;humidity
79230;BME280;68663;49.122;17.544;2024-01-15T00:00:38;97920.50;;;24.51;37.37
79230;BME280;68663;49.122;17.544;2024-01-15T00:03:04;97920.19;;;24.49;37.64
79230;BME280;68663;49.122;17.544;2024-01-15T00:05:29;97907.78;;;24.46;37.79
79230;BME280;68663;49.122;17.544;2024-01-15T00:07:55;97909.19;;;24.41;37.76
79230;BME280;68663;49.122;17.544;2024-01-15T00:10:20;97896.31;;;24.40;37.79
79230;BME280;68663;49.122;17.544;2024-01-15T00:12:45;97899.13;;;24.40;38.06
79230;BME280;68663;49.122;17.544;2024-01-15T00:15:11;97897.88;;;24.41;38.04
79230;BME280;68663;49.122;17.544;2024-01-15T00:17:36;97896.94;;;24.44;37.93
79230;BME280;68663;49.122;17.544;2024-01-15T00:20:02;97895.53;;;24.49;38.01
79230;BME280;68663;49.122;17.544;2024-01-15T00:22:28;97895.84;;;24.51;38.00
79230;BME280;68663;49.122;17.544;2024-01-15T00:24:54;97902.28;;;24.52;38.34
79230;BME280;68663;49.122;17.544;2024-01-15T00:27:19;97916.72;;;24.54;38.24
79230;BME280;68663;49.122;17.544;2024-01-15T00:29:45;97901.34;;;24.55;38.44
79230;BME280;68663;49.122;17.544;2024-01-15T00:32:10;97893.66;;;24.55;38.13
79230;BME280;68663;49.122;17.544;2024-01-15T00:34:36;97885.97;;;24.56;38.54
79230;BME280;68663;49.122;17.544;2024-01-15T00:37:01;97880.31;;;24.56;38.38
79230;BME280;68663;49.122;17.544;2024-01-15T00:39:26;97874.66;;;24.56;38.18
79230;BME280;68663;49.122;17.544;2024-01-15T00:41:52;97869.00;;;24.56;38.28
79230;BME280;68663;49.122;17.544;2024-01-15T00:44:17;97874.66;;;24.56;38.45
79230;BME280;68663;49.122;17.544;2024-01-15T00:46:46;97869.81;;;24.56;38.70
79230;BME280;68663;49.122;17.544;2024-01-15T00:49:13;97864.94;;;24.57;38.76
79230;BME280;68663;49.122;17.544;2024-01-15T00:51:39;97860.84;;;24.58;38.93
79230;BME280;68663;49.122;17.544;2024-01-15T00:54:04;97848.75;;;24.57;39.08
79230;BME280;68663;49.122;17.544;2024-01-15T00:56:30;97841.53;;;24.56;38.94
79230;BME280;68663;49.122;17.544;2024-01-15T00:58:55;97823.03;;;24.55;38.85
79230;BME280;68663;49.122;17.544;2024-01-15T01:01:20;97816.59;;;24.55;39.14
79230;BME280;68663;49.122;17.544;2024-01-15T01:03:46;97825.06;;;24.55;38.76
79230;BME280;68663;49.122;17.544;2024-01-15T01:06:11;97825.06;;;24.55;38.91
79230;BME280;68663;49.122;17.544;2024-01-15T01:08:37;97827.88;;;24.55;39.01
79230;BME280;68663;49.122;17.544;2024-01-15T01:11:02;97829.47;;;24.56;39.06
79230;BME280;68663;49.122;17.544;2024-01-15T01:13:27;97819.25;;;24.58;39.13
79230;BME280;68663;49.122;17.544;2024-01-15T01:15:53;97813.13;;;24.60;38.82
79230;BME280;68663;49.122;17.544;2024-01-15T01:18:18;97807.47;;;24.60;38.98
79230;BME280;68663;49.122;17.544;2024-01-15T01:20:44;97812.81;;;24.58;38.93
79230;BME280;68663;49.122;17.544;2024-01-15T01:23:09;97798.38;;;24.56;39.19
79230;BME280;68663;49.122;17.544;2024-01-15T01:25:34;97810.94;;;24.55;39.03
79230;BME280;68663;49.122;17.544;2024-01-15T01:28:00;97799.31;;;24.53;39.03
79230;BME280;68663;49.122;17.544;2024-01-15T01:30:25;97801.34;;;24.52;39.15
79230;BME280;68663;49.122;17.544;2024-01-15T01:32:50;97798.22;;;24.50;39.24
79230;BME280;68663;49.122;17.544;2024-01-15T01:35:16;97786.59;;;24.48;39.29
79230;BME280;68663;49.122;17.544;2024-01-15T01:37:41;97770.91;;;24.47;39.10
79230;BME280;68663;49.122;17.544;2024-01-15T01:40:07;97778.13;;;24.48;39.14
79230;BME280;68663;49.122;17.544;2024-01-15T01:42:33;97767.31;;;24.47;39.60
79230;BME280;68663;49.122;17.544;2024-01-15T01:44:58;97766.50;;;24.46;39.45
79230;BME280;68663;49.122;17.544;2024-01-15T01:47:24;97762.91;;;24.45;39.46
79230;BME280;68663;49.122;17.544;2024-01-15T01:49:52;97758.50;;;24.44;39.33
79230;BME280;68663;49.122;17.544;2024-01-15T01:52:17;97752.06;;;24.44;39.49
79230;BME280;68663;49.122;17.544;2024-01-15T01:54:43;97745.66;;;24.43;39.36
79230;BME280;68663;49.122;17.544;2024-01-15T01:57:09;97748.47;;;24.43;39.53
79230;BME280;68663;49.122;17.544;2024-01-15T01:59:36;97757.41;;;24.42;39.67
79230;BME280;68663;49.122;17.544;2024-01-15T02:02:02;97746.91;;;24.42;39.61
79230;BME280;68663;49.122;17.544;2024-01-15T02:04:29;97747.84;;;24.39;39.38
79230;BME280;68663;49.122;17.544;2024-01-15T02:06:55;97754.28;;;24.40;39.59
79230;BME280;68663;49.122;17.544;2024-01-15T02:09:21;97748.47;;;24.43;39.90
79230;BME280;68663;49.122;17.544;2024-01-15T02:11:47;97756.31;;;24.49;39.65
79230;BME280;68663;49.122;17.544;2024-01-15T02:14:13;97750.66;;;24.49;40.09
79230;BME280;68663;49.122;17.544;2024-01-15T02:16:39;97752.38;;;24.46;39.45
79230;BME280;68663;49.122;17.544;2024-01-15T02:19:04;97729.47;;;24.44;39.57
79230;BME280;68663;49.122;17.544;2024-01-15T02:21:31;97735.59;;;24.42;39.57
79230;BME280;68663;49.122;17.544;2024-01-15T02:23:57;97737.31;;;24.40;39.64
79230;BME280;68663;49.122;17.544;2024-01-15T02:26:23;97723.34;;;24.36;39.57
79230;BME280;68663;49.122;17.544;2024-01-15T02:28:48;97716.16;;;24.35;39.69
79230;BME280;68663;49.122;17.544;2024-01-15T02:31:15;97725.25;;;24.39;39.67
79230;BME280;68663;49.122;17.544;2024-01-15T02:33:40;97729.94;;;24.42;39.82
79230;BME280;68663;49.122;17.544;2024-01-15T02:36:07;97717.69;;;24.45;39.56
79230;BME280;68663;49.122;17.544;2024-01-15T02:38:33;97717.53;;;24.49;39.52
79230;BME280;68663;49.122;17.544;2024-01-15T02:40:58;97708.28;;;24.49;39.58
79230;BME280;68663;49.122;17.544;2024-01-15T02:43:24;97713.16;;;24.48;39.50
79230;BME280;68663;49.122;17.544;2024-01-15T02:45:49;97703.88;;;24.48;39.49
79230;BME280;68663;49.122;17.544;2024-01-15T02:48:14;97719.59;;;24.49;39.86
79230;BME280;68663;49.122;17.544;2024-01-15T02:50:40;97714.72;;;24.49;39.52
79230;BME280;68663;49.122;17.544;2024-01-15T02:53:05;97701.38;;;24.50;39.74
79230;BME280;68663;49.122;17.544;2024-01-15T02:55:30;97709.38;;;24.51;39.71
79230;BME280;68663;49.122;17.544;2024-01-15T02:57:56;97692.44;;;24.51;39.60
79230;BME280;68663;49.122;17.544;2024-01-15T03:00:21;97691.66;;;24.51;39.50
79230;BME280;68663;49.122;17.544;2024-01-15T03:02:47;97687.56;;;24.52;39.87
79230;BME280;68663;49.122;17.544;2024-01-15T03:05:13;97694.00;;;24.52;39.72
79230;BME280;68663;49.122;17.544;2024-01-15T03:07:38;97687.56;;;24.52;39.64
79230;BME280;68663;49.122;17.544;2024-01-15T03:10:05;97682.69;;;24.52;39.68
79230;BME280;68663;49.122;17.544;2024-01-15T03:12:31;97682.69;;;24.52;39.50
79230;BME280;68663;49.122;17.544;2024-01-15T03:14:57;97686.78;;;24.51;39.45
79230;BME280;68663;49.122;17.544;2024-01-15T03:17:22;97686.78;;;24.51;39.83
79230;BME280;68663;49.122;17.544;2024-01-15T03:19:48;97680.34;;;24.51;39.76
79230;BME280;68663;49.122;17.544;2024-01-15T03:22:15;97669.50;;;24.49;39.37
79230;BME280;68663;49.122;17.544;2024-01-15T03:24:40;97671.56;;;24.49;39.34
79230;BME280;68663;49.122;17.544;2024-01-15T03:27:06;97668.41;;;24.47;39.54
79230;BME280;68663;49.122;17.544;2024-01-15T03:29:31;97672.97;;;24.44;39.70
79230;BME280;68663;49.122;17.544;2024-01-15T03:31:56;97666.22;;;24.41;39.81
79230;BME280;68663;49.122;17.544;2024-01-15T03:34:22;97656.66;;;24.39;39.95
79230;BME280;68663;49.122;17.544;2024-01-15T03:36:47;97653.53;;;24.37;39.89
79230;BME280;68663;49.122;17.544;2024-01-15T03:39:13;97664.81;;;24.37;39.88
79230;BME280;68663;49.122;17.544;2024-01-15T03:41:38;97663.88;;;24.40;40.05
79230;BME280;68663;49.122;17.544;2024-01-15T03:44:04;97662.47;;;24.44;39.86
79230;BME280;68663;49.122;17.544;2024-01-15T03:46:29;97664.34;;;24.48;39.68
79230;BME280;68663;49.122;17.544;2024-01-15T03:48:54;97665.91;;;24.49;39.71
79230;BME280;68663;49.122;17.544;2024-01-15T03:51:20;97657.44;;;24.49;39.57
79230;BME280;68663;49.122;17.544;2024-01-15T03:53:46;97659.31;;;24.52;39.73
79230;BME280;68663;49.122;17.544;2024-01-15T03:56:11;97657.75;;;24.51;39.68
79230;BME280;68663;49.122;17.544;2024-01-15T03:58:37;97655.22;;;24.53;39.73
79230;BME280;68663;49.122;17.544;2024-01-15T04:01:02;97662.44;;;24.54;39.70
79230;BME280;68663;49.122;17.544;2024-01-15T04:03:28;97661.19;;;24.55;39.64
79230;BME280;68663;49.122;17.544;2024-01-15T04:05:53;97664.00;;;24.55;39.54
79230;BME280;68663;49.122;17.544;2024-01-15T04:08:19;97668.88;;;24.54;39.47
79230;BME280;68663;49.122;17.544;2024-01-15T04:10:44;97666.38;;;24.56;39.37
79230;BME280;68663;49.122;17.544;2024-01-15T04:13:10;97659.94;;;24.56;39.62
79230;BME280;68663;49.122;17.544;2024-01-15T04:15:35;97655.53;;;24.55;39.48
79230;BME280;68663;49.122;17.544;2024-01-15T04:18:02;97658.34;;;24.55;39.50
79230;BME280;68663;49.122;17.544;2024-01-15T04:20:28;97644.22;;;24.55;39.74
79230;BME280;68663;49.122;17.544;2024-01-15T04:22:53;97643.44;;;24.54;39.62
79230;BME280;68663;49.122;17.544;2024-01-15T04:25:18;97636.72;;;24.52;39.83
79230;BME280;68663;49.122;17.544;2024-01-15T04:27:44;97637.50;;;24.52;39.44
79230;BME280;68663;49.122;17.544;2024-01-15T04:30:09;97635.91;;;24.51;39.67
79230;BME280;68663;49.122;17.544;2024-01-15T04:32:35;97632.31;;;24.51;39.82
79230;BME280;68663;49.122;17.544;2024-01-15T04:35:01;97616.63;;;24.50;39.90
79230;BME280;68663;49.122;17.544;2024-01-15T04:37:26;97622.28;;;24.50;39.59
79230;BME280;68663;49.122;17.544;2024-01-15T04:39:51;97616.63;;;24.50;40.21
79230;BME280;68663;49.122;17.544;2024-01-15T04:42:20;97622.28;;;24.50;39.94
79230;BME280;68663;49.122;17.544;2024-01-15T04:44:45;97613.50;;;24.48;40.54
79230;BME280;68663;49.122;17.544;2024-01-15T04:47:11;97624.00;;;24.47;41.23
79230;BME280;68663;49.122;17.544;2024-01-15T04:49:36;97624.00;;;24.47;41.55
79230;BME280;68663;49.122;17.544;2024-01-15T04:52:04;97631.69;;;24.47;41.59
79230;BME280;68663;49.122;17.544;2024-01-15T04:54:30;97635.31;;;24.47;41.65
79230;BME280;68663;49.122;17.544;2024-01-15T04:56:55;97640.16;;;24.47;42.35
79230;BME280;68663;49.122;17.544;2024-01-15T04:59:21;97635.31;;;24.47;42.57
79230;BME280;68663;49.122;17.544;2024-01-15T05:01:46;97637.34;;;24.47;42.88
79230;BME280;68663;49.122;17.544;2024-01-15T05:04:12;97648.66;;;24.47;42.65
79230;BME280;68663;49.122;17.544;2024-01-15T05:06:38;97651.47;;;24.47;42.66
79230;BME280;68663;49.122;17.544;2024-01-15T05:09:03;97649.44;;;24.47;42.58
79230;BME280;68663;49.122;17.544;2024-01-15T05:11:29;97655.56;;;24.45;42.59
79230;BME280;68663;49.122;17.544;2024-01-15T05:13:55;97662.78;;;24.47;42.24
79230;BME280;68663;49.122;17.544;2024-01-15T05:16:20;97648.66;;;24.47;42.24
79230;BME280;68663;49.122;17.544;2024-01-15T05:18:45;97656.34;;;24.46;42.56
79230;BME280;68663;49.122;17.544;2024-01-15T05:21:11;97656.34;;;24.46;42.77
79230;BME280;68663;49.122;17.544;2024-01-15T05:23:37;97663.72;;;24.43;42.56
79230;BME280;68663;49.122;17.544;2024-01-15T05:26:03;97661.38;;;24.42;42.79
79230;BME280;68663;49.122;17.544;2024-01-15T05:28:28;97668.75;;;24.39;43.01
79230;BME280;68663;49.122;17.544;2024-01-15T05:30:54;97669.22;;;24.38;42.70
79230;BME280;68663;49.122;17.544;2024-01-15T05:33:21;97667.97;;;24.39;42.55
79230;BME280;68663;49.122;17.544;2024-01-15T05:35:47;97667.50;;;24.40;42.72
79230;BME280;68663;49.122;17.544;2024-01-15T05:38:12;97665.44;;;24.41;42.63
79230;BME280;68663;49.122;17.544;2024-01-15T05:40:38;97662.16;;;24.42;42.49
79230;BME280;68663;49.122;17.544;2024-01-15T05:43:03;97651.16;;;24.44;42.71
79230;BME280;68663;49.122;17.544;2024-01-15T05:45:30;97658.38;;;24.45;42.52
79230;BME280;68663;49.122;17.544;2024-01-15T05:47:56;97664.34;;;24.48;42.07
79230;BME280;68663;49.122;17.544;2024-01-15T05:50:21;97668.25;;;24.50;42.08
79230;BME280;68663;49.122;17.544;2024-01-15T05:52:47;97668.25;;;24.50;41.68
79230;BME280;68663;49.122;17.544;2024-01-15T05:55:13;97670.59;;;24.52;41.94
79230;BME280;68663;49.122;17.544;2024-01-15T05:57:38;97673.75;;;24.54;42.02
79230;BME280;68663;49.122;17.544;2024-01-15T06:00:04;97673.75;;;24.54;42.04
79230;BME280;68663;49.122;17.544;2024-01-15T06:02:30;97670.44;;;24.55;41.89
79230;BME280;68663;49.122;17.544;2024-01-15T06:04:55;97669.66;;;24.55;41.81
79230;BME280;68663;49.122;17.544;2024-01-15T06:07:22;97676.09;;;24.55;41.57
79230;BME280;68663;49.122;17.544;2024-01-15T06:09:48;97668.88;;;24.54;41.85
79230;BME280;68663;49.122;17.544;2024-01-15T06:12:13;97668.88;;;24.54;41.72
79230;BME280;68663;49.122;17.544;2024-01-15T06:14:38;97674.53;;;24.54;41.66
79230;BME280;68663;49.122;17.544;2024-01-15T06:17:04;97676.25;;;24.52;41.36
79230;BME280;68663;49.122;17.544;2024-01-15T06:19:29;97670.31;;;24.50;41.15
79230;BME280;68663;49.122;17.544;2024-01-15T06:21:55;97672.81;;;24.48;41.71
79230;BME280;68663;49.122;17.544;2024-01-15T06:24:20;97676.59;;;24.44;41.65
79230;BME280;68663;49.122;17.544;2024-01-15T06:26:48;97666.22;;;24.41;41.59
79230;BME280;68663;49.122;17.544;2024-01-15T06:29:14;97665.91;;;24.39;41.81
79230;BME280;68663;49.122;17.544;2024-01-15T06:31:39;97661.84;;;24.40;41.71
79230;BME280;68663;49.122;17.544;2024-01-15T06:34:05;97665.44;;;24.41;41.86
79230;BME280;68663;49.122;17.544;2024-01-15T06:36:30;97655.25;;;24.43;41.73
79230;BME280;68663;49.122;17.544;2024-01-15T06:38:55;97662.00;;;24.46;41.77
79230;BME280;68663;49.122;17.544;2024-01-15T06:41:21;97678.47;;;24.48;41.34
79230;BME280;68663;49.122;17.544;2024-01-15T06:43:47;97688.50;;;24.49;41.68
79230;BME280;68663;49.122;17.544;2024-01-15T06:46:13;97694.94;;;24.49;41.51
79230;BME280;68663;49.122;17.544;2024-01-15T06:48:38;97687.25;;;24.50;41.48
79230;BME280;68663;49.122;17.544;2024-01-15T06:51:04;97697.28;;;24.51;41.39
79230;BME280;68663;49.122;17.544;2024-01-15T06:53:29;97695.72;;;24.50;41.28
79230;BME280;68663;49.122;17.544;2024-01-15T06:55:55;97702.47;;;24.52;41.19
79230;BME280;68663;49.122;17.544;2024-01-15T06:58:20;97689.59;;;24.51;41.15
79230;BME280;68663;49.122;17.544;2024-01-15T07:00:46;97689.13;;;24.53;41.15
79230;BME280;68663;49.122;17.544;2024-01-15T07:03:11;97705.59;;;24.54;41.20
79230;BME280;68663;49.122;17.544;2024-01-15T07:05:37;97686.63;;;24.55;41.22
79230;BME280;68663;49.122;17.544;2024-01-15T07:08:03;97691.47;;;24.54;41.20
79230;BME280;68663;49.122;17.544;2024-01-15T07:10:28;97691.94;;;24.53;41.34
79230;BME280;68663;49.122;17.544;2024-01-15T07:12:54;97709.22;;;24.55;41.21
79230;BME280;68663;49.122;17.544;2024-01-15T07:15:19;97702.00;;;24.54;41.11
79230;BME280;68663;49.122;17.544;2024-01-15T07:17:45;97713.78;;;24.52;41.09
79230;BME280;68663;49.122;17.544;2024-01-15T07:20:10;97707.66;;;24.54;41.58
79230;BME280;68663;49.122;17.544;2024-01-15T07:22:36;97718.63;;;24.52;41.42
79230;BME280;68663;49.122;17.544;2024-01-15T07:25:02;97710.16;;;24.52;41.38
79230;BME280;68663;49.122;17.544;2024-01-15T07:27:27;97716.13;;;24.54;41.40
79230;BME280;68663;49.122;17.544;2024-01-15T07:29:53;97714.88;;;24.55;41.25
79230;BME280;68663;49.122;17.544;2024-01-15T07:32:18;97711.25;;;24.54;41.36
79230;BME280;68663;49.122;17.544;2024-01-15T07:34:43;97719.72;;;24.54;40.98
79230;BME280;68663;49.122;17.544;2024-01-15T07:37:09;97718.63;;;24.52;41.23
79230;BME280;68663;49.122;17.544;2024-01-15T07:39:34;97725.53;;;24.51;41.17
79230;BME280;68663;49.122;17.544;2024-01-15T07:42:00;97734.03;;;24.51;41.01
79230;BME280;68663;49.122;17.544;2024-01-15T07:44:26;97738.09;;;24.50;41.21
79230;BME280;68663;49.122;17.544;2024-01-15T07:46:51;97739.34;;;24.49;41.02
79230;BME280;68663;49.122;17.544;2024-01-15T07:49:17;97745.00;;;24.49;41.03
79230;BME280;68663;49.122;17.544;2024-01-15T07:51:43;97744.22;;;24.48;41.15
79230;BME280;68663;49.122;17.544;2024-01-15T07:54:11;97743.44;;;24.48;41.01
79230;BME280;68663;49.122;17.544;2024-01-15T07:57:00;97740.31;;;24.45;40.88
79230;BME280;68663;49.122;17.544;2024-01-15T07:59:26;97745.94;;;24.45;41.00
79230;BME280;68663;49.122;17.544;2024-01-15T08:01:52;97745.66;;;24.43;41.18
79230;BME280;68663;49.122;17.544;2024-01-15T08:04:18;97750.03;;;24.44;41.32
79230;BME280;68663;49.122;17.544;2024-01-15T08:06:43;97761.34;;;24.44;41.44
79230;BME280;68663;49.122;17.544;2024-01-15T08:09:09;97766.19;;;24.44;41.09
79230;BME280;68663;49.122;17.544;2024-01-15T08:11:35;97754.91;;;24.44;41.28
79230;BME280;68663;49.122;17.544;2024-01-15T08:14:00;97761.81;;;24.43;41.38
79230;BME280;68663;49.122;17.544;2024-01-15T08:16:26;97755.38;;;24.42;41.22
79230;BME280;68663;49.122;17.544;2024-01-15T08:18:53;97761.03;;;24.42;41.09
79230;BME280;68663;49.122;17.544;2024-01-15T08:21:19;97779.53;;;24.43;41.05
79230;BME280;68663;49.122;17.544;2024-01-15T08:23:44;97803.41;;;24.42;41.01
79230;BME280;68663;49.122;17.544;2024-01-15T08:26:10;97786.44;;;24.42;41.24
79230;BME280;68663;49.122;17.544;2024-01-15T08:28:36;97782.38;;;24.43;40.94
79230;BME280;68663;49.122;17.544;2024-01-15T08:31:01;97781.09;;;24.44;41.01
79230;BME280;68663;49.122;17.544;2024-01-15T08:33:28;97782.38;;;24.43;40.96
79230;BME280;68663;49.122;17.544;2024-01-15T08:35:54;97771.06;;;24.43;41.05
79230;BME280;68663;49.122;17.544;2024-01-15T08:38:19;97752.53;;;24.42;40.92
79230;BME280;68663;49.122;17.544;2024-01-15T08:40:45;97763.06;;;24.42;40.85
79230;BME280;68663;49.122;17.544;2024-01-15T08:43:10;97759.13;;;24.39;40.70
79230;BME280;68663;49.122;17.544;2024-01-15T08:45:35;97761.97;;;24.39;41.39
79230;BME280;68663;49.122;17.544;2024-01-15T08:48:01;97768.88;;;24.48;40.80
79230;BME280;68663;49.122;17.544;2024-01-15T08:50:27;97776.09;;;24.49;41.00
79230;BME280;68663;49.122;17.544;2024-01-15T08:52:52;97770.44;;;24.49;40.73
79230;BME280;68663;49.122;17.544;2024-01-15T08:55:18;97779.84;;;24.45;40.86
79230;BME280;68663;49.122;17.544;2024-01-15T08:57:43;97785.97;;;24.44;40.74
79230;BME280;68663;49.122;17.544;2024-01-15T09:00:09;97784.88;;;24.41;40.93
79230;BME280;68663;49.122;17.544;2024-01-15T09:02:35;97785.81;;;24.38;40.99
79230;BME280;68663;49.122;17.544;2024-01-15T09:05:01;97784.25;;;24.37;40.72
79230;BME280;68663;49.122;17.544;2024-01-15T09:07:29;97787.38;;;24.39;41.14
79230;BME280;68663;49.122;17.544;2024-01-15T09:09:55;97789.28;;;24.42;41.12
79230;BME280;68663;49.122;17.544;2024-01-15T09:12:20;97789.13;;;24.46;40.88
79230;BME280;68663;49.122;17.544;2024-01-15T09:14:47;97778.59;;;24.47;40.75
79230;BME280;68663;49.122;17.544;2024-01-15T09:17:13;97774.84;;;24.50;40.84
79230;BME280;68663;49.122;17.544;2024-01-15T09:19:38;97778.44;;;24.50;40.93
79230;BME280;68663;49.122;17.544;2024-01-15T09:22:07;97768.72;;;24.51;40.79
79230;BME280;68663;49.122;17.544;2024-01-15T09:24:32;97772.31;;;24.52;40.58
79230;BME280;68663;49.122;17.544;2024-01-15T09:26:58;97769.81;;;24.54;40.58
79230;BME280;68663;49.122;17.544;2024-01-15T09:29:23;97759.28;;;24.54;40.81
79230;BME280;68663;49.122;17.544;2024-01-15T09:31:49;97768.88;;;24.57;40.64
79230;BME280;68663;49.122;17.544;2024-01-15T09:34:15;97769.66;;;24.57;40.93
79230;BME280;68663;49.122;17.544;2024-01-15T09:36:41;97764.78;;;24.58;40.49
79230;BME280;68663;49.122;17.544;2024-01-15T09:39:10;97765.09;;;24.60;40.82
79230;BME280;68663;49.122;17.544;2024-01-15T09:41:39;97756.63;;;24.60;40.64
79230;BME280;68663;49.122;17.544;2024-01-15T09:44:04;97765.09;;;24.60;40.45
79230;BME280;68663;49.122;17.544;2024-01-15T09:46:32;97763.84;;;24.61;40.49
79230;BME280;68663;49.122;17.544;2024-01-15T09:48:58;97757.41;;;24.60;40.46
79230;BME280;68663;49.122;17.544;2024-01-15T09:51:24;97754.09;;;24.62;40.38
79230;BME280;68663;49.122;17.544;2024-01-15T09:53:50;97749.22;;;24.62;40.80
79230;BME280;68663;49.122;17.544;2024-01-15T09:56:16;97735.88;;;24.63;40.57
79230;BME280;68663;49.122;17.544;2024-01-15T09:58:42;97731.50;;;24.62;40.52
79230;BME280;68663;49.122;17.544;2024-01-15T10:01:08;97727.41;;;24.63;40.55
79230;BME280;68663;49.122;17.544;2024-01-15T10:03:34;97725.84;;;24.62;40.46
79230;BME280;68663;49.122;17.544;2024-01-15T10:05:59;97727.41;;;24.63;40.72
79230;BME280;68663;49.122;17.544;2024-01-15T10:08:25;97720.50;;;24.64;40.62
79230;BME280;68663;49.122;17.544;2024-01-15T10:10:51;97720.19;;;24.62;40.37
79230;BME280;68663;49.122;17.544;2024-01-15T10:13:17;97715.31;;;24.62;40.46
79230;BME280;68663;49.122;17.544;2024-01-15T10:15:46;97727.41;;;24.63;40.65
79230;BME280;68663;49.122;17.544;2024-01-15T10:18:12;97726.63;;;24.62;40.60
79230;BME280;68663;49.122;17.544;2024-01-15T10:20:39;97722.22;;;24.61;40.17
79230;BME280;68663;49.122;17.544;2024-01-15T10:23:05;97725.84;;;24.62;40.66
79230;BME280;68663;49.122;17.544;2024-01-15T10:25:30;97735.09;;;24.62;40.34
79230;BME280;68663;49.122;17.544;2024-01-15T10:28:03;97742.00;;;24.61;40.58
79230;BME280;68663;49.122;17.544;2024-01-15T10:30:29;97734.78;;;24.60;40.34
79230;BME280;68663;49.122;17.544;2024-01-15T10:33:02;97732.44;;;24.59;40.39
79230;BME280;68663;49.122;17.544;2024-01-15T10:35:34;97738.09;;;24.59;40.40
79230;BME280;68663;49.122;17.544;2024-01-15T10:38:00;97732.44;;;24.59;40.58
79230;BME280;68663;49.122;17.544;2024-01-15T10:40:26;97722.41;;;24.58;40.36
79230;BME280;68663;49.122;17.544;2024-01-15T10:42:52;97726.78;;;24.59;40.47
79230;BME280;68663;49.122;17.544;2024-01-15T10:45:18;97715.50;;;24.59;40.57
79230;BME280;68663;49.122;17.544;2024-01-15T10:47:43;97713.13;;;24.57;40.64
79230;BME280;68663;49.122;17.544;2024-01-15T10:50:09;97720.34;;;24.58;40.44
79230;BME280;68663;49.122;17.544;2024-01-15T10:52:37;97722.41;;;24.58;40.57
79230;BME280;68663;49.122;17.544;2024-01-15T10:55:03;97724.44;;;24.57;40.67
79230;BME280;68663;49.122;17.544;2024-01-15T10:57:29;97723.97;;;24.59;40.40
79230;BME280;68663;49.122;17.544;2024-01-15T10:59:55;97715.50;;;24.59;40.59
79230;BME280;68663;49.122;17.544;2024-01-15T11:02:21;97716.28;;;24.59;40.62
79230;BME280;68663;49.122;17.544;2024-01-15T11:04:46;97714.22;;;24.60;40.61
79230;BME280;68663;49.122;17.544;2024-01-15T11:07:13;97711.41;;;24.60;39.87
79230;BME280;68663;49.122;17.544;2024-01-15T11:09:39;97703.88;;;24.57;39.85
79230;BME280;68663;49.122;17.544;2024-01-15T11:12:12;97703.56;;;24.55;40.66
79230;BME280;68663;49.122;17.544;2024-01-15T11:14:45;97702.94;;;24.51;40.44
79230;BME280;68663;49.122;17.544;2024-01-15T11:17:11;97700.13;;;24.51;40.23
79230;BME280;68663;49.122;17.544;2024-01-15T11:19:46;97696.97;;;24.49;40.39
79230;BME280;68663;49.122;17.544;2024-01-15T11:24:56;97700.75;;;24.45;40.28
79230;BME280;68663;49.122;17.544;2024-01-15T11:27:40;97694.16;;;24.49;40.74
79230;BME280;68663;49.122;17.544;2024-01-15T11:30:10;97685.03;;;24.54;40.42
79230;BME280;68663;49.122;17.544;2024-01-15T11:32:36;97691.78;;;24.56;40.49
79230;BME280;68663;49.122;17.544;2024-01-15T11:35:02;97687.22;;;24.59;40.55
79230;BME280;68663;49.122;17.544;2024-01-15T11:40:37;97693.97;;;24.61;40.34
79230;BME280;68663;49.122;17.544;2024-01-15T11:43:07;97689.91;;;24.62;40.38
79230;BME280;68663;49.122;17.544;2024-01-15T11:45:34;97693.03;;;24.64;40.60
79230;BME280;68663;49.122;17.544;2024-01-15T11:50:29;97693.81;;;24.65;40.66
79230;BME280;68663;49.122;17.544;2024-01-15T11:53:03;97686.91;;;24.66;40.11
79230;BME280;68663;49.122;17.544;2024-01-15T11:55:38;97682.81;;;24.67;40.04
79230;BME280;68663;49.122;17.544;2024-01-15T11:58:08;97682.81;;;24.67;40.28
79230;BME280;68663;49.122;17.544;2024-01-15T12:00:35;97677.47;;;24.69;40.34
79230;BME280;68663;49.122;17.544;2024-01-15T12:03:04;97674.66;;;24.69;40.28
79230;BME280;68663;49.122;17.544;2024-01-15T12:05:30;97677.78;;;24.71;40.02
79230;BME280;68663;49.122;17.544;2024-01-15T12:07:55;97679.66;;;24.74;40.15
79230;BME280;68663;49.122;17.544;2024-01-15T12:10:21;97682.78;;;24.76;40.15
79230;BME280;68663;49.122;17.544;2024-01-15T12:13:07;97670.22;;;24.77;40.08
79230;BME280;68663;49.122;17.544;2024-01-15T12:15:35;97669.91;;;24.75;40.02
79230;BME280;68663;49.122;17.544;2024-01-15T12:18:02;97665.84;;;24.76;40.01
79230;BME280;68663;49.122;17.544;2024-01-15T12:20:31;97665.84;;;24.76;40.12
79230;BME280;68663;49.122;17.544;2024-01-15T12:22:57;97656.09;;;24.77;40.24
79230;BME280;68663;49.122;17.544;2024-01-15T12:25:24;97663.63;;;24.80;40.17
79230;BME280;68663;49.122;17.544;2024-01-15T12:27:51;97658.44;;;24.78;40.34
79230;BME280;68663;49.122;17.544;2024-01-15T12:30:16;97650.44;;;24.77;40.09
79230;BME280;68663;49.122;17.544;2024-01-15T12:32:42;97641.66;;;24.75;40.18
79230;BME280;68663;49.122;17.544;2024-01-15T12:35:08;97640.09;;;24.74;40.14
79230;BME280;68663;49.122;17.544;2024-01-15T12:37:40;97639.78;;;24.72;40.43
79230;BME280;68663;49.122;17.544;2024-01-15T12:40:07;97642.63;;;24.72;40.17
79230;BME280;68663;49.122;17.544;2024-01-15T12:42:37;97640.25;;;24.70;40.36
79230;BME280;68663;49.122;17.544;2024-01-15T12:45:09;97631.00;;;24.70;40.12
79230;BME280;68663;49.122;17.544;2024-01-15T12:47:34;97640.25;;;24.70;40.20
79230;BME280;68663;49.122;17.544;2024-01-15T12:50:01;97641.53;;;24.69;40.28
79230;BME280;68663;49.122;17.544;2024-01-15T12:52:27;97635.09;;;24.69;40.20